Time;durP1;ratioP1;P1;durP2;ratioP2;P2;SDS_P1;SDS_P2;PMS_P1;PMS_P2;Temp;Humidity;BMP_temperature;BMP_pressure;BME280_temperature;BME280_humidity;BME280_pressure;Samples;Min_cycle;Max_cycle;Signal;HPM_P1;HPM_P2
2023/03/22 00:01:33;;;;;;;30.20;14.20;;;9.60;77.30;;;;;;5010031;28;20486;-81
2023/03/22 00:04:03;;;;;;;132.17;43.17;;;9.60;77.30;;;;;;5011642;28;20456;-81
2023/03/22 00:06:31;;;;;;;46.70;18.80;;;9.60;77.20;;;;;;5011012;28;20584;-80
2023/03/22 00:08:58;;;;;;;49.23;20.67;;;9.60;77.20;;;;;;5015830;28;20476;-84
2023/03/22 00:11:26;;;;;;;18.37;10.23;;;9.50;77.20;;;;;;5015313;28;20452;-83
2023/03/22 00:13:55;;;;;;;14.10;9.43;;;9.40;77.20;;;;;;5015626;28;20456;-84
2023/03/22 00:16:23;;;;;;;14.77;10.37;;;9.40;77.10;;;;;;5015478;28;20453;-83
2023/03/22 00:18:51;;;;;;;14.13;9.63;;;9.30;77.30;;;;;;5012444;28;20687;-79
2023/03/22 00:21:21;;;;;;;17.97;10.43;;;9.40;77.50;;;;;;5011802;28;20487;-79
2023/03/22 00:23:49;;;;;;;19.80;11.73;;;9.40;77.60;;;;;;5014858;28;20464;-79
2023/03/22 00:26:17;;;;;;;22.90;13.10;;;9.40;77.50;;;;;;5011764;28;21450;-78
2023/03/22 00:28:45;;;;;;;35.27;17.30;;;9.50;77.50;;;;;;5007632;28;20472;-78
2023/03/22 00:31:14;;;;;;;15.40;10.33;;;9.50;77.40;;;;;;5010004;28;21006;-79
2023/03/22 00:33:43;;;;;;;19.43;10.70;;;9.50;77.40;;;;;;5013552;28;20464;-81
2023/03/22 00:36:21;;;;;;;20.37;10.90;;;9.50;77.30;;;;;;5014015;28;20452;-81
2023/03/22 00:38:52;;;;;;;14.63;9.50;;;9.50;77.30;;;;;;5009083;28;21017;-82
2023/03/22 00:41:21;;;;;;;16.00;10.07;;;9.50;77.30;;;;;;5010848;28;20483;-79
2023/03/22 00:43:51;;;;;;;14.40;9.77;;;9.50;77.40;;;;;;5011557;28;20460;-77
2023/03/22 00:46:20;;;;;;;14.10;9.60;;;9.50;77.50;;;;;;5011371;28;20452;-77
2023/03/22 00:48:49;;;;;;;16.20;9.23;;;9.50;77.50;;;;;;5009526;28;20918;-77
2023/03/22 00:51:17;;;;;;;13.33;8.90;;;9.50;77.50;;;;;;5008018;28;20478;-80
2023/03/22 00:53:48;;;;;;;26.53;15.70;;;9.50;77.60;;;;;;5011090;28;20978;-78
2023/03/22 00:56:17;;;;;;;16.70;10.40;;;9.50;77.70;;;;;;5010825;28;20527;-79
2023/03/22 00:58:55;;;;;;;16.90;9.77;;;9.50;77.60;;;;;;5013274;28;20467;-80
2023/03/22 01:01:23;;;;;;;17.27;11.07;;;9.50;77.80;;;;;;5010349;28;20469;-78
2023/03/22 01:03:51;;;;;;;14.37;9.43;;;9.60;77.80;;;;;;5010481;28;20456;-77
2023/03/22 01:06:20;;;;;;;12.93;8.90;;;9.60;77.90;;;;;;5010469;28;20472;-78
2023/03/22 01:08:50;;;;;;;13.50;9.00;;;9.60;78.00;;;;;;5010315;28;20639;-78
2023/03/22 01:11:18;;;;;;;13.90;9.97;;;9.70;78.00;;;;;;5004655;28;20468;-77
2023/03/22 01:13:47;;;;;;;13.60;9.03;;;9.70;78.10;;;;;;5009399;28;20856;-81
2023/03/22 01:16:15;;;;;;;14.33;9.40;;;9.70;78.20;;;;;;5009910;28;20445;-79
2023/03/22 01:18:43;;;;;;;14.77;9.97;;;9.80;78.30;;;;;;4996972;28;20463;-79
2023/03/22 01:21:11;;;;;;;17.70;10.60;;;9.80;78.30;;;;;;5009279;28;20739;-80
2023/03/22 01:23:40;;;;;;;15.83;10.40;;;9.90;78.40;;;;;;5007736;28;20468;-80
2023/03/22 01:26:09;;;;;;;14.97;10.13;;;10.00;78.40;;;;;;5013961;28;20467;-79
2023/03/22 01:28:39;;;;;;;16.70;10.43;;;10.00;78.30;;;;;;5010650;28;20452;-80
2023/03/22 01:31:07;;;;;;;16.27;9.97;;;10.10;78.40;;;;;;5012156;28;20491;-83
2023/03/22 01:33:36;;;;;;;13.53;9.50;;;10.10;78.30;;;;;;5010947;28;20464;-79
2023/03/22 01:36:05;;;;;;;13.93;9.73;;;10.10;78.30;;;;;;5006989;28;21022;-78
2023/03/22 01:38:34;;;;;;;18.57;10.47;;;10.10;78.20;;;;;;5007599;28;20811;-78
2023/03/22 01:41:03;;;;;;;21.57;13.97;;;10.10;78.20;;;;;;5010910;28;20500;-78
2023/03/22 01:43:36;;;;;;;17.10;12.00;;;10.10;78.20;;;;;;5008808;28;20464;-81
2023/03/22 01:46:04;;;;;;;15.23;10.90;;;10.10;78.20;;;;;;5011091;28;20541;-76
2023/03/22 01:48:37;;;;;;;20.63;12.63;;;10.10;78.20;;;;;;5013761;28;20487;-82
2023/03/22 01:51:09;;;;;;;17.57;11.47;;;10.10;78.30;;;;;;5009123;28;20460;-82
2023/03/22 01:54:04;;;;;;;19.77;11.80;;;10.10;78.50;;;;;;5010974;28;20461;-79
2023/03/22 01:56:37;;;;;;;21.73;12.43;;;10.20;78.60;;;;;;5013174;28;20769;-82
2023/03/22 01:59:10;;;;;;;18.17;11.90;;;10.20;78.70;;;;;;5012263;28;21074;-80
2023/03/22 02:01:59;;;;;;;15.10;10.67;;;10.30;78.70;;;;;;5007917;28;20540;-78
2023/03/22 02:04:33;;;;;;;17.63;10.40;;;10.40;78.70;;;;;;5004564;28;20467;-78
2023/03/22 02:07:08;;;;;;;13.63;10.13;;;10.40;78.80;;;;;;5009669;28;20747;-79
2023/03/22 02:09:41;;;;;;;16.13;11.13;;;10.40;78.80;;;;;;5012605;28;20460;-79
2023/03/22 02:12:19;;;;;;;13.73;9.40;;;10.50;78.80;;;;;;5009101;28;20459;-77
2023/03/22 02:15:10;;;;;;;13.60;8.90;;;10.50;78.80;;;;;;5009442;28;20553;-78
2023/03/22 02:18:15;;;;;;;13.67;8.63;;;10.60;78.80;;;;;;5005309;28;20510;-77
2023/03/22 02:21:21;;;;;;;15.70;10.10;;;10.60;78.70;;;;;;5008022;28;20467;-83
2023/03/22 02:24:27;;;;;;;14.60;10.20;;;10.60;78.70;;;;;;5003465;28;20618;-81
2023/03/22 02:27:32;;;;;;;19.10;10.93;;;10.60;78.70;;;;;;4999740;28;20950;-79
2023/03/22 02:30:29;;;;;;;14.80;10.33;;;10.60;78.70;;;;;;4952522;28;20938;-80
2023/03/22 02:33:15;;;;;;;13.93;9.17;;;10.60;78.80;;;;;;4982700;28;20476;-79
2023/03/22 02:35:54;;;;;;;13.67;9.87;;;10.70;78.90;;;;;;4998739;28;20462;-79
2023/03/22 02:39:05;;;;;;;18.10;10.30;;;10.70;78.90;;;;;;4998943;28;20486;-80
2023/03/22 02:41:46;;;;;;;14.43;8.70;;;10.70;79.00;;;;;;4980233;28;20474;-78
2023/03/22 02:44:22;;;;;;;11.73;8.50;;;10.80;79.10;;;;;;4999046;28;20807;-81
2023/03/22 02:47:00;;;;;;;18.90;10.07;;;10.80;79.10;;;;;;4976396;28;20551;-78
2023/03/22 02:49:34;;;;;;;13.93;9.83;;;10.90;79.10;;;;;;4993063;28;20479;-82
2023/03/22 02:52:10;;;;;;;14.13;9.67;;;10.90;79.10;;;;;;4994162;28;20937;-80
2023/03/22 02:54:42;;;;;;;11.97;8.47;;;10.90;79.00;;;;;;5006060;28;20454;-79
2023/03/22 02:57:17;;;;;;;13.47;8.33;;;10.90;79.10;;;;;;5005673;28;20457;-80
2023/03/22 02:59:46;;;;;;;14.00;9.43;;;10.90;79.10;;;;;;4988195;28;20481;-81
2023/03/22 03:02:17;;;;;;;12.33;8.60;;;11.00;79.10;;;;;;5006857;28;20490;-83
2023/03/22 03:04:48;;;;;;;12.60;8.60;;;10.90;79.00;;;;;;4998513;28;20480;-83
2023/03/22 03:07:20;;;;;;;14.47;9.20;;;11.00;79.10;;;;;;5018499;28;20555;-79
2023/03/22 03:09:51;;;;;;;12.67;9.57;;;11.00;79.10;;;;;;5001467;28;20949;-79
2023/03/22 03:12:21;;;;;;;12.63;9.63;;;11.00;79.20;;;;;;5018312;28;20466;-84
2023/03/22 03:14:50;;;;;;;14.17;10.17;;;11.00;79.20;;;;;;5000862;28;20978;-80
2023/03/22 03:17:28;;;;;;;12.57;8.50;;;11.00;79.10;;;;;;4998443;28;20465;-80
2023/03/22 03:20:16;;;;;;;15.23;9.70;;;11.00;79.20;;;;;;5011087;28;20476;-81
2023/03/22 03:22:57;;;;;;;14.63;9.43;;;11.00;79.20;;;;;;5009153;28;20492;-79
2023/03/22 03:25:37;;;;;;;12.53;8.77;;;11.00;79.20;;;;;;5007068;28;21343;-79
2023/03/22 03:28:15;;;;;;;12.27;8.47;;;11.10;79.20;;;;;;4991628;28;20804;-79
2023/03/22 03:30:53;;;;;;;13.80;9.10;;;11.10;79.20;;;;;;5013345;28;20492;-80
2023/03/22 03:33:26;;;;;;;12.30;8.80;;;11.00;79.20;;;;;;5011391;28;20485;-82
2023/03/22 03:35:58;;;;;;;13.10;8.90;;;11.00;79.30;;;;;;5010183;28;20449;-79
2023/03/22 03:38:29;;;;;;;13.23;9.00;;;11.00;79.20;;;;;;5009670;28;20468;-80
2023/03/22 03:41:03;;;;;;;12.63;8.80;;;11.00;79.20;;;;;;5021180;28;20461;-82
2023/03/22 03:43:33;;;;;;;11.70;9.03;;;11.00;79.20;;;;;;5009454;28;20878;-82
2023/03/22 03:46:02;;;;;;;15.13;9.50;;;11.00;79.20;;;;;;5017726;28;20465;-81
2023/03/22 03:48:32;;;;;;;12.83;9.20;;;11.00;79.20;;;;;;5002679;28;20777;-81
2023/03/22 03:51:02;;;;;;;15.40;8.90;;;11.00;79.20;;;;;;5005429;28;20453;-79
2023/03/22 03:53:30;;;;;;;16.90;8.57;;;10.90;79.30;;;;;;5009742;28;20445;-80
2023/03/22 03:56:00;;;;;;;14.80;8.50;;;10.90;79.30;;;;;;5020535;28;20457;-79
2023/03/22 03:58:34;;;;;;;15.03;9.00;;;10.90;79.30;;;;;;5011410;28;20475;-80
2023/03/22 04:01:03;;;;;;;16.20;10.67;;;10.90;79.30;;;;;;5014419;28;20483;-80
2023/03/22 04:03:55;;;;;;;17.47;12.23;;;10.90;79.20;;;;;;5014777;28;20485;-79
2023/03/22 04:06:34;;;;;;;19.37;13.70;;;10.80;79.20;;;;;;5010538;28;20486;-78
2023/03/22 04:09:09;;;;;;;21.13;13.57;;;10.80;79.30;;;;;;5016706;28;20462;-80
2023/03/22 04:11:43;;;;;;;17.80;14.33;;;10.70;79.40;;;;;;5013098;28;20465;-79
2023/03/22 04:14:11;;;;;;;15.07;11.70;;;10.70;79.50;;;;;;5014737;28;20472;-82
2023/03/22 04:16:46;;;;;;;18.30;12.47;;;10.80;79.60;;;;;;5017617;28;20536;-79
2023/03/22 04:19:18;;;;;;;18.80;11.70;;;10.80;79.70;;;;;;5021731;28;20524;-84
2023/03/22 04:21:46;;;;;;;17.13;12.50;;;10.80;79.60;;;;;;5025610;28;20829;-81
2023/03/22 04:24:15;;;;;;;13.57;9.70;;;10.80;79.60;;;;;;5020413;28;20552;-80
2023/03/22 04:26:47;;;;;;;13.00;8.70;;;10.80;79.70;;;;;;4999261;28;20474;-82
2023/03/22 04:29:24;;;;;;;12.73;8.00;;;10.80;79.80;;;;;;5017342;28;20555;-81
2023/03/22 04:32:02;;;;;;;12.57;8.43;;;10.90;79.80;;;;;;4997312;28;20481;-79
2023/03/22 04:34:40;;;;;;;13.20;8.10;;;10.90;79.80;;;;;;5021915;28;20544;-81
2023/03/22 04:37:13;;;;;;;11.83;7.87;;;10.90;79.90;;;;;;5019189;28;20459;-80
2023/03/22 04:40:16;;;;;;;12.10;8.63;;;11.00;79.90;;;;;;5013710;28;20543;-78
2023/03/22 04:43:04;;;;;;;15.07;8.53;;;11.00;79.90;;;;;;5012694;28;20483;-80
2023/03/22 04:45:57;;;;;;;12.67;7.43;;;11.10;79.90;;;;;;5016870;28;20728;-79
2023/03/22 04:48:31;;;;;;;13.70;8.67;;;11.10;79.80;;;;;;5016702;28;20465;-80
2023/03/22 04:51:03;;;;;;;9.80;6.70;;;11.10;79.80;;;;;;5005061;28;20473;-80
2023/03/22 04:53:38;;;;;;;12.93;7.43;;;11.20;79.70;;;;;;5010290;28;20478;-80
2023/03/22 04:56:11;;;;;;;14.97;8.10;;;11.20;79.60;;;;;;5018837;28;20477;-80
2023/03/22 04:58:47;;;;;;;13.80;8.00;;;11.20;79.60;;;;;;5018328;28;20649;-81
2023/03/22 05:01:19;;;;;;;10.73;7.13;;;11.20;79.50;;;;;;5022701;28;20477;-80
2023/03/22 05:03:54;;;;;;;10.37;6.80;;;11.20;79.50;;;;;;5000273;28;20481;-81
2023/03/22 05:06:25;;;;;;;14.37;8.23;;;11.20;79.50;;;;;;5006765;28;20605;-79
2023/03/22 05:09:02;;;;;;;9.70;7.40;;;11.20;79.40;;;;;;5004660;28;20450;-79
2023/03/22 05:11:31;;;;;;;21.50;9.00;;;11.10;79.40;;;;;;5018945;28;20470;-82
2023/03/22 05:14:14;;;;;;;13.23;7.20;;;11.10;79.30;;;;;;5012332;28;20545;-81
2023/03/22 05:16:42;;;;;;;12.40;7.53;;;11.10;79.30;;;;;;5008147;28;20477;-81
2023/03/22 05:19:12;;;;;;;13.13;8.03;;;11.10;79.10;;;;;;4997499;28;20450;-81
2023/03/22 05:21:44;;;;;;;12.47;8.10;;;11.00;79.00;;;;;;5013228;28;20605;-85
2023/03/22 05:24:12;;;;;;;10.70;7.80;;;11.00;79.00;;;;;;5019563;28;20490;-81
2023/03/22 05:26:43;;;;;;;12.87;8.17;;;11.00;79.00;;;;;;5018703;28;20704;-81
2023/03/22 05:29:14;;;;;;;13.37;9.53;;;10.90;79.00;;;;;;5010894;28;20483;-81
2023/03/22 05:32:05;;;;;;;13.20;8.53;;;10.90;79.10;;;;;;5013373;28;20626;-83
2023/03/22 05:34:35;;;;;;;11.97;8.83;;;10.90;79.20;;;;;;4994120;28;20461;-80
2023/03/22 05:37:20;;;;;;;12.50;8.33;;;11.00;79.20;;;;;;5003574;28;20800;-82
2023/03/22 05:39:54;;;;;;;14.07;10.03;;;11.00;79.10;;;;;;5010116;28;20531;-82
2023/03/22 05:42:30;;;;;;;13.57;9.10;;;11.00;79.20;;;;;;5019940;28;20756;-83
2023/03/22 05:45:00;;;;;;;14.97;9.73;;;11.00;79.10;;;;;;5015230;28;21014;-82
2023/03/22 05:47:29;;;;;;;15.33;9.77;;;11.00;79.20;;;;;;5017839;28;20485;-81
2023/03/22 05:50:02;;;;;;;18.07;11.10;;;11.10;79.20;;;;;;5020064;28;21333;-83
2023/03/22 05:52:32;;;;;;;14.27;10.63;;;11.10;79.20;;;;;;5021651;28;20524;-83
2023/03/22 05:55:17;;;;;;;13.43;9.50;;;11.10;79.20;;;;;;5015953;28;20451;-83
2023/03/22 05:57:50;;;;;;;17.87;10.20;;;11.10;79.20;;;;;;4999767;28;20461;-83
2023/03/22 06:00:20;;;;;;;13.13;9.17;;;11.20;79.20;;;;;;5020329;28;20459;-83
2023/03/22 06:03:14;;;;;;;13.07;9.20;;;11.20;79.20;;;;;;4983007;28;20559;-80
2023/03/22 06:05:49;;;;;;;14.93;9.30;;;11.20;79.20;;;;;;5011343;28;20471;-83
2023/03/22 06:08:20;;;;;;;13.17;9.90;;;11.20;79.10;;;;;;5018616;28;20488;-81
2023/03/22 06:10:50;;;;;;;17.40;10.03;;;11.30;79.10;;;;;;5002237;28;20468;-83
2023/03/22 06:13:18;;;;;;;15.00;10.33;;;11.30;79.10;;;;;;5003722;28;20469;-81
2023/03/22 06:15:48;;;;;;;14.60;9.40;;;11.30;79.10;;;;;;4995210;28;20554;-83
2023/03/22 06:18:25;;;;;;;18.07;10.43;;;11.30;79.10;;;;;;5009409;28;20499;-82
2023/03/22 06:21:01;;;;;;;18.50;10.33;;;11.40;79.20;;;;;;4992582;28;21155;-82
2023/03/22 06:23:38;;;;;;;14.10;10.37;;;11.40;79.10;;;;;;5009350;28;20461;-80
2023/03/22 06:26:10;;;;;;;17.47;10.67;;;11.50;79.10;;;;;;4994928;28;20467;-82
2023/03/22 06:28:39;;;;;;;14.90;10.70;;;11.50;79.10;;;;;;5011454;28;20505;-82
2023/03/22 06:31:10;;;;;;;13.83;10.13;;;11.50;79.10;;;;;;5010115;28;20559;-79
2023/03/22 06:33:55;;;;;;;15.93;9.60;;;11.60;79.00;;;;;;4995181;28;20602;-80
2023/03/22 06:36:29;;;;;;;14.43;10.23;;;11.60;79.10;;;;;;5015968;28;20449;-82
2023/03/22 06:39:06;;;;;;;13.10;8.90;;;11.60;79.10;;;;;;5014877;28;20474;-82
2023/03/22 06:41:40;;;;;;;13.70;9.23;;;11.60;79.10;;;;;;5022089;28;20454;-83
2023/03/22 06:44:09;;;;;;;16.13;8.50;;;11.70;79.00;;;;;;5015627;28;20510;-81
2023/03/22 06:47:04;;;;;;;16.60;8.73;;;11.70;78.90;;;;;;5007271;28;20544;-80
2023/03/22 06:49:44;;;;;;;18.93;8.63;;;11.80;78.90;;;;;;5018290;28;21261;-81
2023/03/22 06:52:19;;;;;;;14.43;9.73;;;11.80;78.80;;;;;;5001696;28;20466;-82
2023/03/22 06:54:47;;;;;;;9.97;7.53;;;11.80;78.80;;;;;;4997420;28;20447;-84
2023/03/22 06:57:15;;;;;;;12.30;7.73;;;11.80;78.80;;;;;;5004033;28;20711;-84
2023/03/22 06:59:43;;;;;;;13.03;7.57;;;11.90;78.70;;;;;;5010404;28;20518;-83
2023/03/22 07:02:14;;;;;;;12.47;8.17;;;11.90;78.70;;;;;;5009722;28;20492;-83
2023/03/22 07:05:00;;;;;;;14.50;8.50;;;11.90;78.70;;;;;;5015584;28;20494;-81
2023/03/22 07:07:27;;;;;;;14.73;7.60;;;12.00;78.60;;;;;;5010324;28;20458;-82
2023/03/22 07:09:55;;;;;;;11.53;7.30;;;12.00;78.60;;;;;;5018101;28;20517;-82
2023/03/22 07:12:24;;;;;;;11.50;7.13;;;12.00;78.60;;;;;;5009393;28;20451;-81
2023/03/22 07:14:52;;;;;;;16.50;7.40;;;12.00;78.60;;;;;;5016184;28;20542;-83
2023/03/22 07:17:35;;;;;;;12.00;7.90;;;12.00;78.50;;;;;;5004697;28;20795;-83
2023/03/22 07:20:04;;;;;;;12.57;7.77;;;12.10;78.50;;;;;;5018013;28;20501;-83
2023/03/22 07:22:32;;;;;;;12.13;7.70;;;12.10;78.50;;;;;;5016583;28;20455;-81
2023/03/22 07:25:00;;;;;;;11.40;7.50;;;12.10;78.40;;;;;;5013113;28;20495;-83
2023/03/22 07:27:31;;;;;;;11.73;8.17;;;12.10;78.30;;;;;;5013858;28;20575;-83
2023/03/22 07:30:00;;;;;;;11.70;7.30;;;12.20;78.10;;;;;;5023861;28;20894;-83
2023/03/22 07:32:29;;;;;;;11.77;7.80;;;12.10;78.10;;;;;;5000189;28;20561;-84
2023/03/22 07:35:06;;;;;;;11.47;7.00;;;12.10;78.20;;;;;;4998690;28;20538;-81
2023/03/22 07:37:34;;;;;;;10.93;6.80;;;12.10;78.20;;;;;;5012633;28;20558;-83
2023/03/22 07:40:08;;;;;;;16.40;7.30;;;12.10;78.20;;;;;;5007814;28;20507;-81
2023/03/22 07:42:37;;;;;;;11.80;7.50;;;12.20;78.20;;;;;;5016023;28;20460;-83
2023/03/22 07:45:30;;;;;;;12.40;7.70;;;12.20;78.10;;;;;;5024737;28;20952;-83
2023/03/22 07:48:19;;;;;;;11.40;7.70;;;12.20;78.10;;;;;;5023561;28;20667;-83
2023/03/22 07:50:58;;;;;;;12.60;7.90;;;12.20;78.20;;;;;;5025083;28;20470;-81
2023/03/22 07:53:27;;;;;;;13.07;7.47;;;12.30;78.10;;;;;;5013015;28;20541;-82
2023/03/22 07:55:56;;;;;;;9.93;6.27;;;12.30;78.10;;;;;;5004652;28;20457;-84
2023/03/22 07:58:24;;;;;;;14.00;6.93;;;12.30;78.10;;;;;;5018088;28;20445;-82
2023/03/22 08:00:52;;;;;;;8.90;6.40;;;12.40;78.10;;;;;;5017695;28;20914;-82
2023/03/22 08:03:40;;;;;;;8.40;5.87;;;12.40;78.10;;;;;;5013600;28;20494;-83
2023/03/22 08:06:31;;;;;;;9.63;5.57;;;12.40;78.00;;;;;;5014578;28;20458;-83
2023/03/22 08:09:00;;;;;;;8.50;5.97;;;12.40;78.20;;;;;;5014193;28;20567;-83
2023/03/22 08:11:28;;;;;;;9.90;5.83;;;12.40;78.10;;;;;;5008716;28;20579;-81
2023/03/22 08:13:57;;;;;;;9.57;5.93;;;12.50;77.90;;;;;;5016865;28;20479;-82
2023/03/22 08:16:25;;;;;;;12.00;6.40;;;12.50;78.00;;;;;;5017839;28;20561;-83
2023/03/22 08:18:54;;;;;;;8.07;5.67;;;12.50;78.10;;;;;;5017491;28;20549;-83
2023/03/22 08:21:25;;;;;;;10.10;5.30;;;12.60;78.00;;;;;;5013687;28;20778;-80
2023/03/22 08:23:57;;;;;;;13.03;5.33;;;12.60;78.00;;;;;;5018472;28;20455;-83
2023/03/22 08:26:44;;;;;;;8.93;5.10;;;12.70;78.00;;;;;;5013371;28;20473;-82
2023/03/22 08:29:18;;;;;;;9.70;5.00;;;12.70;78.00;;;;;;5011052;28;20462;-83
2023/03/22 08:31:48;;;;;;;9.23;4.80;;;12.80;77.90;;;;;;5019536;28;20476;-81
2023/03/22 08:34:16;;;;;;;10.20;4.13;;;12.80;78.00;;;;;;5023666;28;20457;-82
2023/03/22 08:36:45;;;;;;;7.03;3.93;;;12.90;77.80;;;;;;5011910;28;21031;-83
2023/03/22 08:39:15;;;;;;;11.10;4.33;;;13.00;77.80;;;;;;5027144;28;20518;-83
2023/03/22 08:42:02;;;;;;;9.77;4.87;;;13.00;77.70;;;;;;5015608;28;20468;-81
2023/03/22 08:44:31;;;;;;;9.13;4.10;;;13.00;77.70;;;;;;5020178;28;20471;-83
2023/03/22 08:47:00;;;;;;;11.90;3.80;;;13.10;77.50;;;;;;5023016;28;20457;-82
2023/03/22 08:49:31;;;;;;;7.53;3.53;;;13.20;77.40;;;;;;5016430;28;20892;-81
2023/03/22 08:52:07;;;;;;;8.70;3.90;;;13.20;77.40;;;;;;5026100;28;20460;-81
2023/03/22 08:54:45;;;;;;;8.03;3.60;;;13.20;77.50;;;;;;5015705;28;20568;-81
2023/03/22 08:57:43;;;;;;;9.10;4.00;;;13.20;77.40;;;;;;5018112;28;20459;-82
2023/03/22 09:00:20;;;;;;;7.00;3.97;;;13.30;77.30;;;;;;5012197;28;20460;-83
2023/03/22 09:03:04;;;;;;;6.93;3.50;;;13.30;77.20;;;;;;5020193;28;20466;-81
2023/03/22 09:05:33;;;;;;;10.33;4.87;;;13.30;77.30;;;;;;5022263;28;20503;-82
2023/03/22 09:08:03;;;;;;;6.70;3.40;;;13.30;77.30;;;;;;5005025;28;20802;-82
2023/03/22 09:10:41;;;;;;;6.33;2.83;;;13.40;77.20;;;;;;5001181;28;20479;-81
2023/03/22 09:13:12;;;;;;;13.73;3.60;;;13.40;77.20;;;;;;5018874;28;20492;-81
2023/03/22 09:15:45;;;;;;;5.70;3.30;;;13.40;77.10;;;;;;5013407;28;20562;-83
2023/03/22 09:18:23;;;;;;;6.10;3.07;;;13.40;77.10;;;;;;5019031;28;20550;-83
2023/03/22 09:20:52;;;;;;;6.90;2.77;;;13.40;77.20;;;;;;5031198;28;20451;-84
2023/03/22 09:23:25;;;;;;;4.33;2.20;;;13.50;77.10;;;;;;5011503;28;20482;-82
2023/03/22 09:25:55;;;;;;;11.43;2.60;;;13.50;77.00;;;;;;5002987;28;20570;-81
2023/03/22 09:28:26;;;;;;;12.50;1.87;;;13.50;76.80;;;;;;4994084;28;20591;-81
2023/03/22 09:31:01;;;;;;;4.30;1.83;;;13.60;76.90;;;;;;5015314;28;20530;-82
2023/03/22 09:33:30;;;;;;;5.03;1.70;;;13.70;76.70;;;;;;5005560;28;20518;-82
2023/03/22 09:35:58;;;;;;;6.10;1.30;;;13.80;76.60;;;;;;5019421;28;20553;-83
2023/03/22 09:38:27;;;;;;;3.43;1.30;;;13.80;76.60;;;;;;5024424;28;20909;-83
2023/03/22 09:41:01;;;;;;;5.03;1.53;;;13.80;76.50;;;;;;5014041;28;21020;-83
2023/03/22 09:43:35;;;;;;;5.17;1.60;;;13.90;76.10;;;;;;5020686;28;20460;-82
2023/03/22 09:46:08;;;;;;;4.40;1.67;;;14.00;76.20;;;;;;5020437;28;20497;-84
2023/03/22 09:48:38;;;;;;;4.10;1.70;;;14.00;75.80;;;;;;5017021;28;20453;-83
2023/03/22 09:51:19;;;;;;;5.20;1.70;;;14.10;75.90;;;;;;5015548;28;20473;-83
2023/03/22 09:53:49;;;;;;;5.83;1.93;;;14.10;75.70;;;;;;5012462;28;20720;-81
2023/03/22 09:56:23;;;;;;;4.77;1.40;;;14.10;75.50;;;;;;5008460;28;20471;-82
2023/03/22 09:58:56;;;;;;;6.30;2.10;;;14.20;75.30;;;;;;5016635;28;20453;-81
2023/03/22 10:01:36;;;;;;;4.50;1.60;;;14.20;75.20;;;;;;5020887;28;20977;-81
2023/03/22 10:04:42;;;;;;;4.03;1.67;;;14.20;75.10;;;;;;5006187;28;20462;-81
2023/03/22 10:07:18;;;;;;;4.80;1.80;;;14.20;75.00;;;;;;5001713;28;20446;-83
2023/03/22 10:09:54;;;;;;;5.00;1.47;;;14.30;74.80;;;;;;5013812;28;20453;-81
2023/03/22 10:12:28;;;;;;;4.00;1.47;;;14.30;74.70;;;;;;5009970;28;20685;-84
2023/03/22 10:15:02;;;;;;;6.37;1.80;;;14.30;74.60;;;;;;5011800;28;20481;-83
2023/03/22 10:17:31;;;;;;;5.60;1.70;;;14.30;74.70;;;;;;5011571;28;20460;-81
2023/03/22 10:20:07;;;;;;;5.03;1.80;;;14.50;74.30;;;;;;4994166;28;20548;-83
2023/03/22 10:22:40;;;;;;;8.63;2.47;;;14.50;74.20;;;;;;5022046;28;20984;-82
2023/03/22 10:25:09;;;;;;;5.73;1.77;;;14.50;74.30;;;;;;5005130;28;20460;-83
2023/03/22 10:27:39;;;;;;;7.90;1.70;;;14.60;74.10;;;;;;5009991;28;20451;-83
2023/03/22 10:30:10;;;;;;;5.47;1.83;;;14.60;73.80;;;;;;5017911;28;20607;-82
2023/03/22 10:32:43;;;;;;;5.20;1.50;;;14.70;73.90;;;;;;5013011;28;21098;-82
2023/03/22 10:35:24;;;;;;;5.83;1.97;;;14.80;74.00;;;;;;5000235;28;20484;-81
2023/03/22 10:37:54;;;;;;;4.13;1.40;;;14.80;73.90;;;;;;5024054;28;20449;-81
2023/03/22 10:40:26;;;;;;;4.60;1.20;;;14.90;73.50;;;;;;5009675;28;20591;-83
2023/03/22 10:43:00;;;;;;;6.20;1.83;;;14.90;73.40;;;;;;5019747;28;20471;-82
2023/03/22 10:45:28;;;;;;;7.30;1.50;;;14.90;73.50;;;;;;5006535;28;20526;-84
2023/03/22 10:48:00;;;;;;;6.40;1.63;;;14.90;73.40;;;;;;5015355;28;20476;-82
2023/03/22 10:50:31;;;;;;;3.53;1.40;;;15.00;73.40;;;;;;5018977;28;20476;-82
2023/03/22 10:53:05;;;;;;;5.03;1.50;;;15.00;73.00;;;;;;5021083;28;20462;-81
2023/03/22 10:55:38;;;;;;;6.27;1.80;;;15.00;72.70;;;;;;5002965;28;20464;-84
2023/03/22 10:58:14;;;;;;;4.17;1.47;;;15.00;72.60;;;;;;5010841;28;21045;-81
2023/03/22 11:00:47;;;;;;;4.50;1.63;;;15.10;72.30;;;;;;5021112;28;20998;-82
2023/03/22 11:03:29;;;;;;;5.13;1.83;;;15.10;72.10;;;;;;5027298;28;20522;-83
2023/03/22 11:06:05;;;;;;;4.23;1.73;;;15.10;72.20;;;;;;5007450;28;20567;-83
2023/03/22 11:08:40;;;;;;;6.47;1.70;;;15.10;72.30;;;;;;5022920;28;20976;-83
2023/03/22 11:11:19;;;;;;;6.27;2.67;;;15.20;72.40;;;;;;5005614;28;20456;-85
2023/03/22 11:13:56;;;;;;;5.13;1.57;;;15.20;72.20;;;;;;5017070;28;20528;-82
2023/03/22 11:16:24;;;;;;;8.13;1.77;;;15.30;71.90;;;;;;5018596;28;20464;-84
2023/03/22 11:18:52;;;;;;;7.67;2.07;;;15.30;71.70;;;;;;5014526;28;20456;-83
2023/03/22 11:21:27;;;;;;;5.80;1.60;;;15.30;71.70;;;;;;5014057;28;20509;-84
2023/03/22 11:23:59;;;;;;;5.73;1.47;;;15.30;71.70;;;;;;5000311;28;20542;-81
2023/03/22 11:26:32;;;;;;;6.13;1.90;;;15.30;71.60;;;;;;5014191;28;20485;-82
2023/03/22 11:29:12;;;;;;;5.83;1.60;;;15.30;71.60;;;;;;5022327;28;20448;-82
2023/03/22 11:31:54;;;;;;;5.17;1.50;;;15.30;71.40;;;;;;5011826;28;20493;-81
2023/03/22 11:34:26;;;;;;;6.60;1.60;;;15.40;71.30;;;;;;5010529;28;20479;-78
2023/03/22 11:36:56;;;;;;;4.73;1.40;;;15.40;71.40;;;;;;5011863;28;20458;-79
2023/03/22 11:39:27;;;;;;;4.73;1.53;;;15.60;71.50;;;;;;5012580;28;20774;-79
2023/03/22 11:42:00;;;;;;;4.73;1.50;;;15.70;71.70;;;;;;5017739;28;20450;-78
2023/03/22 11:44:34;;;;;;;5.77;1.00;;;15.90;71.60;;;;;;5020131;28;20572;-78
2023/03/22 11:47:04;;;;;;;4.30;1.23;;;16.10;71.20;;;;;;5005213;28;20735;-79
2023/03/22 11:49:40;;;;;;;4.90;1.20;;;16.30;71.00;;;;;;5009179;28;20558;-79
2023/03/22 11:52:10;;;;;;;4.60;1.23;;;16.40;70.70;;;;;;5013181;28;20466;-78
2023/03/22 11:54:41;;;;;;;5.27;1.50;;;16.50;70.50;;;;;;5002061;28;20455;-78
2023/03/22 11:57:14;;;;;;;4.13;1.20;;;16.60;69.80;;;;;;5023291;28;20579;-79
2023/03/22 11:59:49;;;;;;;4.87;0.93;;;16.70;69.50;;;;;;5018655;28;20478;-79
2023/03/22 12:02:23;;;;;;;3.73;1.00;;;16.60;69.50;;;;;;5005991;28;21094;-78
2023/03/22 12:04:59;;;;;;;3.83;1.00;;;16.70;69.30;;;;;;5016937;28;20506;-79
2023/03/22 12:07:30;;;;;;;6.60;1.47;;;16.70;69.10;;;;;;5015546;28;20479;-79
2023/03/22 12:10:03;;;;;;;6.20;1.30;;;16.80;69.10;;;;;;5013030;28;20483;-78
2023/03/22 12:12:36;;;;;;;4.53;1.30;;;16.80;69.10;;;;;;5015062;28;21138;-79
2023/03/22 12:15:12;;;;;;;4.50;0.80;;;17.00;68.70;;;;;;5017496;28;20526;-79
2023/03/22 12:17:47;;;;;;;3.83;1.17;;;17.00;68.40;;;;;;5013701;28;20437;-79
2023/03/22 12:20:21;;;;;;;4.37;1.17;;;17.00;68.20;;;;;;5016783;28;20444;-78
2023/03/22 12:22:54;;;;;;;3.60;1.40;;;17.10;68.10;;;;;;5018221;28;20470;-79
2023/03/22 12:25:26;;;;;;;3.37;0.97;;;17.20;67.80;;;;;;5020571;28;22174;-79
2023/03/22 12:27:57;;;;;;;3.60;1.20;;;17.20;67.80;;;;;;5021422;28;20754;-79
2023/03/22 12:30:31;;;;;;;3.83;1.20;;;17.30;67.70;;;;;;5013921;28;20462;-79
2023/03/22 12:33:03;;;;;;;6.43;1.33;;;17.30;67.40;;;;;;4996150;28;20457;-78
2023/03/22 12:35:35;;;;;;;5.03;1.27;;;17.30;66.90;;;;;;5016547;28;20502;-78
2023/03/22 12:38:22;;;;;;;4.20;1.10;;;17.30;66.50;;;;;;5016390;28;20461;-79
2023/03/22 12:40:52;;;;;;;3.77;1.27;;;17.20;66.20;;;;;;5011416;28;20453;-79
2023/03/22 12:43:33;;;;;;;4.33;1.20;;;17.20;66.30;;;;;;5009822;28;21073;-79
2023/03/22 12:46:05;;;;;;;3.10;0.83;;;17.30;66.20;;;;;;5013254;28;20926;-78
2023/03/22 12:48:40;;;;;;;5.50;1.10;;;17.20;66.20;;;;;;5016497;28;20508;-79
2023/03/22 12:51:11;;;;;;;4.23;1.10;;;17.30;66.00;;;;;;5022141;28;20645;-79
2023/03/22 12:53:43;;;;;;;5.93;0.93;;;17.20;65.90;;;;;;5025483;28;20468;-78
2023/03/22 12:56:13;;;;;;;4.03;1.20;;;17.20;65.70;;;;;;5014160;28;20958;-78
2023/03/22 12:58:43;;;;;;;3.90;1.20;;;17.10;65.90;;;;;;5023606;28;20472;-79
2023/03/22 13:01:23;;;;;;;5.03;1.43;;;17.10;65.80;;;;;;5009837;28;20571;-78
2023/03/22 13:03:53;;;;;;;4.53;1.50;;;17.10;65.70;;;;;;5009571;28;20543;-79
2023/03/22 13:06:35;;;;;;;4.70;1.53;;;17.10;65.60;;;;;;5016177;28;21060;-79
2023/03/22 13:09:16;;;;;;;4.03;0.83;;;17.00;65.70;;;;;;5018365;28;20862;-78
2023/03/22 13:11:45;;;;;;;7.03;1.57;;;17.10;65.90;;;;;;5009651;28;20712;-79
2023/03/22 13:14:54;;;;;;;4.77;1.30;;;17.10;66.00;;;;;;5013081;28;20523;-79
2023/03/22 13:17:42;;;;;;;5.00;1.23;;;17.20;65.70;;;;;;5015636;28;20460;-78